Time;durP1;ratioP1;P1;durP2;ratioP2;P2;SDS_P1;SDS_P2;PMS_P1;PMS_P2;Temp;Humidity;BMP_temperature;BMP_pressure;BME280_temperature;BME280_humidity;BME280_pressure;Samples;Min_cycle;Max_cycle;Signal;HPM_P1;HPM_P2
2022/12/07 00:00:12;;;;;;;6.53;5.83;;;6.40;97.00;;;;;;950681;146;27291;-81
2022/12/07 00:02:38;;;;;;;6.80;5.90;;;6.40;96.90;;;;;;954995;146;27348;-81
2022/12/07 00:05:05;;;;;;;6.17;5.33;;;6.40;97.00;;;;;;953502;146;27320;-81
2022/12/07 00:07:32;;;;;;;7.40;5.97;;;6.40;97.00;;;;;;956248;145;27333;-81
2022/12/07 00:09:58;;;;;;;6.30;5.57;;;6.40;97.00;;;;;;956285;146;27405;-81
2022/12/07 00:12:25;;;;;;;7.33;6.10;;;6.40;97.00;;;;;;954054;145;27429;-81
2022/12/07 00:14:51;;;;;;;6.17;5.27;;;6.40;97.10;;;;;;954863;142;27360;-81
2022/12/07 00:17:18;;;;;;;6.17;5.50;;;6.40;97.10;;;;;;954649;146;27287;-81
2022/12/07 00:19:44;;;;;;;6.23;5.60;;;6.40;97.20;;;;;;954964;145;27275;-81
2022/12/07 00:22:11;;;;;;;6.17;5.57;;;6.40;97.20;;;;;;954008;146;27944;-81
2022/12/07 00:24:38;;;;;;;6.57;5.80;;;6.40;97.30;;;;;;938586;148;27296;-81
2022/12/07 00:27:04;;;;;;;5.90;5.30;;;6.40;97.30;;;;;;955609;146;27263;-80
2022/12/07 00:29:31;;;;;;;6.60;5.57;;;6.40;97.30;;;;;;955730;146;27267;-81
2022/12/07 00:31:57;;;;;;;6.87;6.10;;;6.40;97.30;;;;;;953979;146;27322;-81
2022/12/07 00:34:24;;;;;;;7.00;6.03;;;6.50;97.30;;;;;;952256;146;27872;-81
2022/12/07 00:36:51;;;;;;;7.60;6.03;;;6.40;97.30;;;;;;953586;146;27446;-81
2022/12/07 00:39:17;;;;;;;9.00;5.70;;;6.50;97.40;;;;;;953252;146;27272;-81
2022/12/07 00:41:44;;;;;;;6.93;6.07;;;6.40;97.30;;;;;;956827;145;27388;-81
2022/12/07 00:44:10;;;;;;;7.40;5.97;;;6.50;97.40;;;;;;954958;148;27283;-81
2022/12/07 00:46:37;;;;;;;6.80;5.90;;;6.50;97.50;;;;;;953175;146;27838;-81
2022/12/07 00:49:03;;;;;;;7.60;6.77;;;6.50;97.50;;;;;;955789;146;27355;-81
2022/12/07 00:51:30;;;;;;;7.00;6.03;;;6.50;97.50;;;;;;953623;146;27299;-81
2022/12/07 00:53:57;;;;;;;7.50;6.70;;;6.50;97.50;;;;;;952519;146;27283;-81
2022/12/07 00:56:23;;;;;;;7.10;6.40;;;6.60;97.50;;;;;;943841;149;27365;-81
2022/12/07 00:58:59;;;;;;;8.13;6.70;;;6.60;97.50;;;;;;943237;149;27835;-81
2022/12/07 01:01:25;;;;;;;8.10;6.50;;;6.60;97.70;;;;;;919962;150;27831;-81
2022/12/07 01:03:52;;;;;;;8.30;6.30;;;6.60;97.40;;;;;;945647;147;27289;-81
2022/12/07 01:06:18;;;;;;;7.80;7.00;;;6.60;97.40;;;;;;941077;147;27303;-81
2022/12/07 01:08:45;;;;;;;7.87;6.43;;;6.60;97.40;;;;;;941716;147;27447;-81
2022/12/07 01:11:11;;;;;;;9.10;6.37;;;6.60;97.40;;;;;;941726;147;27386;-81
2022/12/07 01:13:38;;;;;;;7.27;6.40;;;6.60;97.40;;;;;;932427;150;27375;-81
2022/12/07 01:16:05;;;;;;;7.03;6.33;;;6.70;97.40;;;;;;942886;146;27386;-81
2022/12/07 01:18:31;;;;;;;8.73;6.80;;;6.70;97.40;;;;;;939237;146;27253;-81
2022/12/07 01:21:01;;;;;;;6.43;5.37;;;6.70;97.40;;;;;;930228;149;27328;-81
2022/12/07 01:23:27;;;;;;;7.43;6.63;;;6.70;97.30;;;;;;922116;150;27293;-81
2022/12/07 01:25:57;;;;;;;9.03;6.90;;;6.70;97.30;;;;;;941247;147;27329;-81
2022/12/07 01:28:23;;;;;;;6.83;6.13;;;6.70;97.20;;;;;;942215;147;27381;-81
2022/12/07 01:30:59;;;;;;;8.30;6.90;;;6.70;97.20;;;;;;941892;147;27401;-81
2022/12/07 01:33:29;;;;;;;6.80;5.80;;;6.70;97.30;;;;;;940307;147;27403;-81
2022/12/07 01:35:55;;;;;;;8.50;6.27;;;6.70;97.40;;;;;;943223;147;27289;-81
2022/12/07 01:38:22;;;;;;;6.80;6.20;;;6.70;97.40;;;;;;942424;147;27323;-81
2022/12/07 01:40:48;;;;;;;7.30;6.43;;;6.80;97.60;;;;;;943347;147;27433;-81
2022/12/07 01:43:18;;;;;;;7.57;6.53;;;6.80;97.60;;;;;;940817;147;27310;-81
2022/12/07 01:45:44;;;;;;;6.77;6.10;;;6.80;97.60;;;;;;939462;147;27278;-81
2022/12/07 01:48:11;;;;;;;6.80;6.10;;;6.80;97.60;;;;;;942270;147;27404;-81
2022/12/07 01:50:37;;;;;;;7.97;6.43;;;6.80;97.60;;;;;;942776;147;27421;-80
2022/12/07 01:53:04;;;;;;;7.03;6.13;;;6.80;97.60;;;;;;939773;147;27334;-81
2022/12/07 01:55:31;;;;;;;7.50;6.70;;;6.80;97.50;;;;;;941536;147;27298;-81
2022/12/07 01:57:57;;;;;;;10.00;6.80;;;6.80;97.50;;;;;;942422;147;27266;-81
2022/12/07 02:00:24;;;;;;;7.67;6.50;;;6.80;97.60;;;;;;942891;147;27369;-80
2022/12/07 02:03:05;;;;;;;7.90;7.10;;;6.80;97.60;;;;;;943254;147;27376;-81
2022/12/07 02:05:32;;;;;;;7.70;6.90;;;6.80;97.60;;;;;;943038;147;27392;-81
2022/12/07 02:07:58;;;;;;;8.37;6.97;;;6.80;97.50;;;;;;942433;147;27387;-81
2022/12/07 02:10:25;;;;;;;7.70;6.93;;;6.80;97.60;;;;;;942614;147;27271;-81
2022/12/07 02:12:52;;;;;;;8.97;6.90;;;6.80;97.80;;;;;;941675;147;27326;-81
2022/12/07 02:15:18;;;;;;;7.43;6.37;;;6.80;97.90;;;;;;941479;147;27362;-81
2022/12/07 02:17:48;;;;;;;8.33;6.20;;;6.80;98.00;;;;;;943539;150;28041;-81
2022/12/07 02:20:35;;;;;;;7.73;6.93;;;6.80;98.00;;;;;;941456;147;27404;-81
2022/12/07 02:23:05;;;;;;;7.63;6.83;;;6.90;98.00;;;;;;941275;148;27308;-81
2022/12/07 02:25:34;;;;;;;7.93;6.53;;;6.90;97.90;;;;;;942070;147;27776;-81
2022/12/07 02:28:06;;;;;;;7.67;6.87;;;6.90;98.00;;;;;;942615;147;27367;-81
2022/12/07 02:30:33;;;;;;;7.10;6.33;;;6.90;98.10;;;;;;942717;147;27411;-81
2022/12/07 02:33:15;;;;;;;8.53;6.93;;;6.90;98.10;;;;;;940735;147;27279;-81
2022/12/07 02:35:50;;;;;;;9.83;6.93;;;6.90;98.10;;;;;;941061;147;27401;-81
2022/12/07 02:38:29;;;;;;;8.83;7.30;;;7.00;98.10;;;;;;940997;147;27301;-81
2022/12/07 02:40:58;;;;;;;7.50;6.53;;;7.00;98.00;;;;;;942506;147;27354;-81
2022/12/07 02:43:25;;;;;;;7.73;6.33;;;7.00;97.90;;;;;;942341;147;27319;-81
2022/12/07 02:45:51;;;;;;;8.40;6.83;;;7.00;97.90;;;;;;944992;147;27334;-81
2022/12/07 02:48:18;;;;;;;9.77;7.10;;;7.00;98.00;;;;;;942354;147;27275;-81
2022/12/07 02:50:45;;;;;;;8.13;6.50;;;7.00;98.00;;;;;;942219;147;27366;-81
2022/12/07 02:53:35;;;;;;;8.07;6.90;;;7.00;98.00;;;;;;939659;147;27362;-81
2022/12/07 02:56:02;;;;;;;8.53;6.53;;;7.00;98.00;;;;;;942483;150;28707;-81
2022/12/07 02:58:37;;;;;;;7.70;6.73;;;7.00;97.90;;;;;;940704;147;27347;-81
2022/12/07 03:01:03;;;;;;;8.00;6.47;;;7.00;97.90;;;;;;942187;147;27353;-81
2022/12/07 03:03:30;;;;;;;7.87;6.67;;;7.00;97.90;;;;;;938775;147;27352;-81
2022/12/07 03:06:02;;;;;;;8.80;6.80;;;7.00;97.90;;;;;;941727;147;27912;-81
2022/12/07 03:08:35;;;;;;;8.33;6.30;;;7.00;97.80;;;;;;942301;147;27368;-81
2022/12/07 03:11:02;;;;;;;8.47;6.73;;;7.10;97.80;;;;;;942103;147;27428;-81
2022/12/07 03:13:34;;;;;;;7.50;6.67;;;7.10;97.80;;;;;;939309;147;27756;-81
2022/12/07 03:16:09;;;;;;;7.70;6.50;;;7.10;97.90;;;;;;941705;147;27348;-81
2022/12/07 03:18:51;;;;;;;7.10;6.33;;;7.10;97.70;;;;;;943723;147;27358;-81
2022/12/07 03:21:20;;;;;;;7.47;6.40;;;7.10;97.70;;;;;;942945;147;27270;-81
2022/12/07 03:23:47;;;;;;;7.00;6.23;;;7.10;97.70;;;;;;941437;147;27409;-81
2022/12/07 03:26:13;;;;;;;7.20;5.93;;;7.10;97.80;;;;;;942148;147;27307;-81
2022/12/07 03:28:40;;;;;;;7.40;6.30;;;7.10;97.80;;;;;;940700;147;27369;-81
2022/12/07 03:31:13;;;;;;;9.27;7.03;;;7.10;97.90;;;;;;943297;147;27439;-81
2022/12/07 03:33:42;;;;;;;8.07;6.40;;;7.10;98.00;;;;;;940256;147;27337;-80
2022/12/07 03:36:18;;;;;;;7.47;6.33;;;7.10;97.90;;;;;;937638;150;27443;-80
2022/12/07 03:38:53;;;;;;;8.37;6.67;;;7.10;97.80;;;;;;939831;147;27370;-80
2022/12/07 03:41:20;;;;;;;10.43;7.33;;;7.10;97.60;;;;;;940250;147;27357;-79
2022/12/07 03:43:46;;;;;;;8.97;6.97;;;7.10;97.50;;;;;;941736;147;27307;-81
2022/12/07 03:46:28;;;;;;;7.97;6.23;;;7.10;97.50;;;;;;940034;147;27313;-81
2022/12/07 03:49:16;;;;;;;7.73;6.17;;;7.10;97.60;;;;;;941725;147;27315;-81
2022/12/07 03:52:03;;;;;;;9.10;6.73;;;7.10;97.50;;;;;;942653;147;27278;-81
2022/12/07 03:54:33;;;;;;;6.73;6.03;;;7.10;97.50;;;;;;943521;147;27343;-81
2022/12/07 03:56:59;;;;;;;7.17;6.23;;;7.10;97.50;;;;;;942728;147;27369;-81
2022/12/07 03:59:26;;;;;;;7.03;6.03;;;7.10;97.50;;;;;;941265;147;27339;-81
2022/12/07 04:01:53;;;;;;;7.10;6.03;;;7.10;97.50;;;;;;942425;147;27459;-81
2022/12/07 04:04:19;;;;;;;6.27;5.53;;;7.20;97.60;;;;;;941674;147;27301;-81
2022/12/07 04:06:46;;;;;;;6.20;5.50;;;7.20;97.70;;;;;;942035;147;27400;-81
2022/12/07 04:09:14;;;;;;;8.50;6.17;;;7.20;97.70;;;;;;942932;147;27419;-81
2022/12/07 04:11:39;;;;;;;7.17;6.10;;;7.20;97.70;;;;;;940837;147;27341;-81
2022/12/07 04:14:20;;;;;;;7.47;6.33;;;7.20;97.60;;;;;;943438;147;27636;-81
2022/12/07 04:16:59;;;;;;;8.37;6.50;;;7.30;97.60;;;;;;943919;148;27294;-81
2022/12/07 04:19:25;;;;;;;7.40;6.60;;;7.30;97.50;;;;;;940154;147;27471;-81
2022/12/07 04:21:52;;;;;;;8.27;6.50;;;7.30;97.40;;;;;;940466;147;27365;-81
2022/12/07 04:24:19;;;;;;;7.60;5.83;;;7.30;97.20;;;;;;941996;147;27240;-81
2022/12/07 04:26:45;;;;;;;7.53;5.83;;;7.30;97.10;;;;;;939484;147;27325;-81
2022/12/07 04:29:12;;;;;;;7.40;5.90;;;7.30;97.10;;;;;;942566;147;27426;-81
2022/12/07 04:31:38;;;;;;;5.97;5.37;;;7.30;97.10;;;;;;941485;147;27385;-81
2022/12/07 04:34:05;;;;;;;5.87;5.20;;;7.30;97.10;;;;;;941283;147;27806;-81
2022/12/07 04:36:31;;;;;;;7.00;5.57;;;7.30;97.10;;;;;;941857;147;27315;-81
2022/12/07 04:38:58;;;;;;;6.30;5.70;;;7.30;97.10;;;;;;939529;147;27383;-81
2022/12/07 04:41:27;;;;;;;5.70;5.00;;;7.30;97.10;;;;;;940777;147;27358;-81
2022/12/07 04:43:56;;;;;;;6.97;5.40;;;7.30;97.10;;;;;;941457;147;27827;-81
2022/12/07 04:46:23;;;;;;;7.07;5.43;;;7.30;97.00;;;;;;941234;147;27400;-81
2022/12/07 04:48:49;;;;;;;6.27;5.33;;;7.30;97.00;;;;;;942185;147;27338;-82
2022/12/07 04:51:22;;;;;;;5.87;5.03;;;7.40;97.00;;;;;;943719;147;27391;-81
2022/12/07 04:53:48;;;;;;;5.63;5.03;;;7.40;97.00;;;;;;924320;150;27390;-81
2022/12/07 04:56:15;;;;;;;6.83;5.33;;;7.40;97.00;;;;;;926932;149;27419;-81
2022/12/07 04:58:41;;;;;;;6.13;5.37;;;7.40;96.90;;;;;;942995;147;27312;-81
2022/12/07 05:01:08;;;;;;;5.47;4.97;;;7.40;96.90;;;;;;940363;148;27297;-81
2022/12/07 05:03:34;;;;;;;5.73;5.00;;;7.40;96.80;;;;;;952716;145;27392;-81
2022/12/07 05:06:01;;;;;;;5.67;4.67;;;7.40;96.70;;;;;;954046;146;27692;-81
2022/12/07 05:08:28;;;;;;;5.33;4.77;;;7.40;96.70;;;;;;942346;149;28081;-81
2022/12/07 05:10:54;;;;;;;7.20;4.80;;;7.40;96.70;;;;;;936312;149;27432;-81
2022/12/07 05:13:21;;;;;;;6.27;4.40;;;7.40;96.60;;;;;;946187;148;27315;-81
2022/12/07 05:15:47;;;;;;;5.47;4.97;;;7.50;96.50;;;;;;947111;148;27401;-81
2022/12/07 05:18:14;;;;;;;5.77;4.77;;;7.40;96.50;;;;;;946534;148;27368;-81
2022/12/07 05:20:41;;;;;;;5.53;4.77;;;7.40;96.50;;;;;;955332;146;27363;-81
2022/12/07 05:23:07;;;;;;;5.60;4.77;;;7.40;96.40;;;;;;935520;149;27789;-81
2022/12/07 05:25:34;;;;;;;5.17;4.60;;;7.50;96.40;;;;;;954516;146;27399;-81
2022/12/07 05:28:00;;;;;;;5.60;4.67;;;7.50;96.40;;;;;;954735;146;27304;-81
2022/12/07 05:30:27;;;;;;;6.50;4.93;;;7.50;96.40;;;;;;954623;146;27356;-81
2022/12/07 05:32:53;;;;;;;5.60;4.53;;;7.50;96.40;;;;;;953268;146;27351;-81
2022/12/07 05:35:20;;;;;;;4.43;4.03;;;7.50;96.40;;;;;;953518;146;27453;-81
2022/12/07 05:37:47;;;;;;;5.13;4.63;;;7.50;96.50;;;;;;952902;146;27366;-81
2022/12/07 05:40:13;;;;;;;6.30;4.70;;;7.50;96.50;;;;;;956050;146;27380;-81
2022/12/07 05:42:40;;;;;;;4.60;4.07;;;7.50;96.50;;;;;;954524;146;27398;-81
2022/12/07 05:45:06;;;;;;;5.87;5.03;;;7.50;96.50;;;;;;957790;146;27359;-82
2022/12/07 05:47:33;;;;;;;6.23;4.90;;;7.50;96.50;;;;;;953620;145;27348;-82
2022/12/07 05:50:00;;;;;;;5.87;4.43;;;7.60;96.50;;;;;;955193;146;27313;-82
2022/12/07 05:52:26;;;;;;;5.70;4.60;;;7.60;96.40;;;;;;955100;145;27279;-81
2022/12/07 05:54:53;;;;;;;4.93;4.37;;;7.60;96.20;;;;;;955125;146;27299;-82
2022/12/07 05:57:19;;;;;;;6.43;4.70;;;7.60;96.10;;;;;;954848;146;27360;-82
2022/12/07 05:59:46;;;;;;;4.83;4.20;;;7.60;96.00;;;;;;941485;149;27373;-82
2022/12/07 06:02:12;;;;;;;5.67;4.83;;;7.60;96.00;;;;;;938584;148;27401;-82
2022/12/07 06:04:39;;;;;;;6.13;5.23;;;7.60;96.00;;;;;;939788;148;27314;-82
2022/12/07 06:07:06;;;;;;;7.00;5.30;;;7.60;96.00;;;;;;959016;145;27432;-82
2022/12/07 06:09:32;;;;;;;5.13;4.63;;;7.60;96.10;;;;;;959356;145;27936;-82
2022/12/07 06:14:44;;;;;;;5.47;4.70;;;7.60;96.30;;;;;;946567;148;27379;-82
2022/12/07 06:17:10;;;;;;;5.20;4.70;;;7.60;96.30;;;;;;956329;145;27311;-81
2022/12/07 06:19:37;;;;;;;6.37;5.37;;;7.60;96.40;;;;;;957988;145;27294;-82
2022/12/07 06:22:04;;;;;;;5.63;4.80;;;7.60;96.40;;;;;;950243;147;27281;-82
2022/12/07 06:24:30;;;;;;;5.10;4.60;;;7.60;96.40;;;;;;958646;144;27348;-82
2022/12/07 06:26:57;;;;;;;5.90;5.40;;;7.70;96.50;;;;;;960315;144;27456;-81
2022/12/07 06:29:23;;;;;;;6.33;5.30;;;7.70;96.40;;;;;;959393;145;27799;-82
2022/12/07 06:31:50;;;;;;;6.33;4.90;;;7.70;96.40;;;;;;962044;145;27443;-81
2022/12/07 06:34:16;;;;;;;5.87;5.33;;;7.70;96.40;;;;;;958152;145;27669;-82
2022/12/07 06:36:43;;;;;;;6.37;5.27;;;7.70;96.30;;;;;;959042;145;27322;-81
2022/12/07 06:39:10;;;;;;;7.23;5.97;;;7.80;96.30;;;;;;957841;145;27473;-81
2022/12/07 06:41:39;;;;;;;6.63;5.67;;;7.80;96.30;;;;;;954006;146;27768;-81
2022/12/07 06:44:06;;;;;;;6.77;6.00;;;7.80;96.20;;;;;;954049;148;27317;-82
2022/12/07 06:46:32;;;;;;;6.57;5.70;;;7.80;96.10;;;;;;955496;148;27292;-82
2022/12/07 06:48:59;;;;;;;7.60;5.93;;;7.80;96.10;;;;;;954225;148;27346;-82
2022/12/07 06:51:25;;;;;;;8.40;6.03;;;7.90;96.00;;;;;;955805;148;27367;-82
2022/12/07 06:53:52;;;;;;;7.50;6.03;;;7.90;96.00;;;;;;955748;145;27412;-82
2022/12/07 06:56:19;;;;;;;7.60;6.40;;;7.90;95.90;;;;;;955301;145;27342;-82
2022/12/07 06:58:45;;;;;;;7.67;5.37;;;7.90;95.80;;;;;;954334;145;27670;-81
2022/12/07 07:01:12;;;;;;;7.03;6.33;;;7.90;95.70;;;;;;957413;145;27393;-82
2022/12/07 07:03:38;;;;;;;6.70;6.00;;;7.90;95.70;;;;;;943678;147;27393;-81
2022/12/07 07:06:05;;;;;;;7.03;5.67;;;7.80;95.60;;;;;;934881;150;27378;-82
2022/12/07 07:08:31;;;;;;;6.23;5.63;;;7.80;95.70;;;;;;924435;153;27321;-82
2022/12/07 07:10:58;;;;;;;7.33;5.77;;;7.80;95.70;;;;;;949243;149;27824;-82
2022/12/07 07:13:25;;;;;;;5.83;5.27;;;7.80;95.80;;;;;;950841;147;27284;-82
2022/12/07 07:15:51;;;;;;;5.53;5.03;;;7.80;95.80;;;;;;936795;151;27348;-82
2022/12/07 07:18:18;;;;;;;8.83;5.70;;;7.80;95.80;;;;;;942672;151;27416;-82
2022/12/07 07:20:44;;;;;;;7.77;6.70;;;7.80;95.70;;;;;;936159;152;27338;-82
2022/12/07 07:23:11;;;;;;;7.10;5.43;;;7.80;95.80;;;;;;935511;149;27339;-81
2022/12/07 07:25:37;;;;;;;6.10;5.30;;;7.80;96.10;;;;;;935695;149;27292;-81
2022/12/07 07:28:04;;;;;;;6.10;5.33;;;7.80;96.00;;;;;;934356;149;27304;-82
2022/12/07 07:30:31;;;;;;;6.40;5.73;;;7.90;96.10;;;;;;935164;149;27414;-82
2022/12/07 07:33:00;;;;;;;5.73;5.10;;;7.90;96.10;;;;;;949182;147;27348;-81
2022/12/07 07:35:27;;;;;;;8.10;5.60;;;7.90;96.20;;;;;;947566;147;27792;-82
2022/12/07 07:37:53;;;;;;;6.37;5.77;;;7.90;96.20;;;;;;937191;149;27382;-82
2022/12/07 07:40:20;;;;;;;6.50;5.87;;;7.90;96.30;;;;;;925307;150;27325;-82
2022/12/07 07:42:52;;;;;;;7.30;6.27;;;8.00;96.30;;;;;;950106;147;27360;-82
2022/12/07 07:45:19;;;;;;;8.43;6.20;;;8.00;96.20;;;;;;934203;149;27449;-82
2022/12/07 07:47:46;;;;;;;7.03;5.93;;;8.00;96.10;;;;;;925689;150;27408;-81
2022/12/07 07:50:12;;;;;;;6.73;6.07;;;8.00;96.10;;;;;;947459;147;27336;-82
2022/12/07 07:52:39;;;;;;;6.37;5.77;;;8.10;96.00;;;;;;947736;147;27951;-82
2022/12/07 07:55:05;;;;;;;7.07;6.00;;;8.10;96.00;;;;;;948084;148;27364;-82
2022/12/07 07:57:32;;;;;;;9.07;6.57;;;8.10;96.00;;;;;;948871;149;27369;-81
2022/12/07 07:59:59;;;;;;;7.47;6.13;;;8.10;96.10;;;;;;949516;148;27270;-82
2022/12/07 08:02:25;;;;;;;6.60;5.73;;;8.10;96.10;;;;;;949417;147;27281;-82
2022/12/07 08:04:52;;;;;;;7.87;5.83;;;8.20;96.10;;;;;;954037;146;27861;-81
2022/12/07 08:07:18;;;;;;;8.07;6.27;;;8.20;96.00;;;;;;954323;145;27356;-82
2022/12/07 08:09:45;;;;;;;6.97;6.27;;;8.20;95.90;;;;;;955805;146;27386;-82
2022/12/07 08:12:11;;;;;;;8.00;6.30;;;8.20;95.90;;;;;;955317;146;27398;-82
2022/12/07 08:14:38;;;;;;;8.43;6.60;;;8.30;95.90;;;;;;953917;145;27373;-82
2022/12/07 08:17:05;;;;;;;9.73;6.33;;;8.30;95.90;;;;;;955609;145;27264;-82
2022/12/07 08:19:31;;;;;;;7.43;5.80;;;8.30;95.90;;;;;;953545;146;27385;-81
2022/12/07 08:21:58;;;;;;;10.33;6.33;;;8.30;95.80;;;;;;955562;145;27359;-81
2022/12/07 08:24:25;;;;;;;7.80;6.30;;;8.40;95.60;;;;;;954036;146;27430;-81
2022/12/07 08:26:51;;;;;;;7.67;5.93;;;8.40;95.50;;;;;;954161;146;27338;-81
2022/12/07 08:29:18;;;;;;;7.83;6.97;;;8.40;95.30;;;;;;956324;146;27347;-82
2022/12/07 08:31:44;;;;;;;7.20;6.13;;;8.40;95.30;;;;;;954178;146;27342;-81
2022/12/07 08:34:11;;;;;;;7.13;6.43;;;8.40;95.20;;;;;;955340;145;27359;-81
2022/12/07 08:36:37;;;;;;;7.67;6.77;;;8.40;95.30;;;;;;953830;146;28280;-82
2022/12/07 08:39:04;;;;;;;8.43;6.37;;;8.50;95.50;;;;;;954336;146;27382;-81
2022/12/07 08:41:30;;;;;;;7.20;6.50;;;8.50;95.60;;;;;;951742;146;27295;-81
2022/12/07 08:43:57;;;;;;;7.93;6.57;;;8.50;95.70;;;;;;954467;146;27294;-82
2022/12/07 08:46:24;;;;;;;6.90;6.20;;;8.60;95.60;;;;;;955539;146;27888;-82
2022/12/07 08:48:50;;;;;;;7.37;5.80;;;8.60;95.60;;;;;;954466;146;27349;-81
2022/12/07 08:51:17;;;;;;;7.70;6.70;;;8.60;95.70;;;;;;952609;146;27402;-82
2022/12/07 08:53:43;;;;;;;8.90;7.10;;;8.70;95.80;;;;;;954642;145;27316;-82
2022/12/07 08:56:10;;;;;;;7.23;5.90;;;8.80;95.80;;;;;;953482;145;27338;-82
2022/12/07 08:58:37;;;;;;;6.90;6.20;;;8.90;95.90;;;;;;955337;145;27291;-82
2022/12/07 09:01:03;;;;;;;7.40;6.40;;;9.00;95.90;;;;;;953445;145;27497;-82
2022/12/07 09:03:30;;;;;;;7.27;6.40;;;9.00;95.60;;;;;;955063;146;27453;-82
2022/12/07 09:05:56;;;;;;;6.27;5.60;;;9.10;95.40;;;;;;943436;146;27346;-82
2022/12/07 09:08:23;;;;;;;6.57;5.93;;;9.20;95.00;;;;;;941299;147;27451;-82
2022/12/07 09:10:49;;;;;;;7.43;5.97;;;9.20;94.60;;;;;;940748;147;27445;-82
2022/12/07 09:13:16;;;;;;;7.13;6.37;;;9.20;94.20;;;;;;941994;147;27411;-81
2022/12/07 09:15:43;;;;;;;7.77;5.70;;;9.20;93.90;;;;;;942941;147;27356;-82
2022/12/07 09:18:09;;;;;;;7.10;6.40;;;9.20;93.60;;;;;;942356;147;27334;-82
2022/12/07 09:20:36;;;;;;;8.00;6.37;;;9.20;93.40;;;;;;941500;147;27245;-81
2022/12/07 09:23:02;;;;;;;9.13;5.37;;;9.20;93.10;;;;;;939945;147;27299;-82
2022/12/07 09:25:29;;;;;;;8.13;5.90;;;9.10;92.80;;;;;;940287;147;27713;-82
2022/12/07 09:27:56;;;;;;;7.17;6.13;;;9.10;92.60;;;;;;941465;147;27355;-82
2022/12/07 09:30:22;;;;;;;7.77;6.30;;;9.00;92.30;;;;;;942998;147;27308;-82
2022/12/07 09:32:49;;;;;;;6.57;5.87;;;8.90;92.30;;;;;;942534;147;27310;-82
2022/12/07 09:35:15;;;;;;;7.03;5.80;;;8.80;92.30;;;;;;943285;147;27304;-82
2022/12/07 09:37:42;;;;;;;7.43;6.27;;;8.70;92.30;;;;;;941595;147;27399;-81
2022/12/07 09:40:08;;;;;;;7.80;6.50;;;8.60;92.40;;;;;;943061;147;27849;-81
2022/12/07 09:42:39;;;;;;;8.27;6.57;;;8.50;92.70;;;;;;942441;147;27349;-81
2022/12/07 09:45:07;;;;;;;8.53;6.83;;;8.50;92.90;;;;;;941279;147;27403;-81
2022/12/07 09:47:34;;;;;;;6.17;5.53;;;8.40;93.20;;;;;;940421;147;27450;-80
2022/12/07 09:50:00;;;;;;;7.40;6.13;;;8.40;93.50;;;;;;941774;147;27336;-81
2022/12/07 09:52:26;;;;;;;7.40;6.00;;;8.30;93.70;;;;;;939429;147;27326;-81
2022/12/07 09:54:53;;;;;;;7.13;6.00;;;8.30;94.00;;;;;;942773;147;27296;-81
2022/12/07 09:57:22;;;;;;;6.90;5.93;;;8.30;94.20;;;;;;940207;147;27783;-81
2022/12/07 09:59:49;;;;;;;6.23;5.50;;;8.30;94.20;;;;;;940526;147;27357;-83
2022/12/07 10:02:36;;;;;;;10.23;6.13;;;8.40;94.20;;;;;;940555;147;27455;-84
2022/12/07 10:05:05;;;;;;;7.43;6.30;;;8.30;94.10;;;;;;942892;147;27410;-84
2022/12/07 10:07:32;;;;;;;7.27;6.37;;;8.30;94.20;;;;;;941146;147;27794;-81
2022/12/07 10:09:59;;;;;;;8.47;6.47;;;8.40;94.70;;;;;;941534;148;27408;-81
2022/12/07 10:12:25;;;;;;;7.23;6.33;;;8.40;95.30;;;;;;941162;147;27478;-81
2022/12/07 10:15:02;;;;;;;7.53;6.70;;;8.50;95.90;;;;;;940906;149;27306;-81
2022/12/07 10:17:30;;;;;;;7.13;6.03;;;8.60;96.30;;;;;;940644;147;27804;-81
2022/12/07 10:20:08;;;;;;;7.63;6.07;;;8.70;96.90;;;;;;940115;147;27341;-81
2022/12/07 10:22:35;;;;;;;7.83;6.23;;;8.80;96.70;;;;;;942683;147;27349;-82
2022/12/07 10:25:02;;;;;;;7.93;5.90;;;9.00;96.50;;;;;;942074;147;27271;-81
2022/12/07 10:27:31;;;;;;;8.17;6.20;;;9.10;96.20;;;;;;940195;147;27354;-81
2022/12/07 10:29:58;;;;;;;7.23;6.37;;;9.20;95.90;;;;;;941726;147;27325;-82
2022/12/07 10:32:27;;;;;;;6.70;5.70;;;9.30;95.50;;;;;;932459;149;27386;-81
2022/12/07 10:34:53;;;;;;;8.40;6.23;;;9.40;95.40;;;;;;942875;147;27485;-81
2022/12/07 10:37:20;;;;;;;7.87;5.93;;;9.50;95.20;;;;;;940277;147;27249;-82
2022/12/07 10:39:46;;;;;;;6.20;5.60;;;9.60;95.10;;;;;;941163;147;27351;-82
2022/12/07 10:42:22;;;;;;;6.27;5.13;;;9.70;95.10;;;;;;940677;147;27317;-81
2022/12/07 10:44:48;;;;;;;6.83;5.23;;;9.80;95.00;;;;;;941696;147;27873;-82
2022/12/07 10:47:15;;;;;;;6.60;5.60;;;9.90;94.80;;;;;;943087;147;27356;-81
2022/12/07 10:49:54;;;;;;;8.77;5.77;;;10.00;94.50;;;;;;940797;147;27302;-81
2022/12/07 10:52:35;;;;;;;5.87;5.37;;;10.10;93.90;;;;;;940730;147;27440;-82
2022/12/07 10:55:12;;;;;;;7.60;5.90;;;10.10;93.50;;;;;;941309;147;27304;-82
2022/12/07 10:57:40;;;;;;;7.43;5.70;;;10.20;93.00;;;;;;935247;147;27402;-82
2022/12/07 11:00:22;;;;;;;6.47;5.57;;;10.10;92.50;;;;;;939609;147;27294;-82
2022/12/07 11:03:06;;;;;;;8.33;5.97;;;10.20;92.20;;;;;;942925;147;27310;-81
2022/12/07 11:05:53;;;;;;;6.33;5.27;;;10.10;91.90;;;;;;932560;150;27417;-82
2022/12/07 11:08:45;;;;;;;6.87;5.70;;;10.10;91.60;;;;;;930413;149;27538;-81
2022/12/07 11:11:20;;;;;;;5.87;5.30;;;10.00;91.40;;;;;;937280;149;27373;-82
2022/12/07 11:13:55;;;;;;;7.43;5.83;;;10.00;91.60;;;;;;950151;149;27288;-82
2022/12/07 11:16:46;;;;;;;6.83;5.93;;;9.90;91.80;;;;;;950020;146;27256;-82
2022/12/07 11:19:25;;;;;;;7.00;5.33;;;9.80;92.00;;;;;;944453;149;27395;-82
2022/12/07 11:22:06;;;;;;;5.23;4.70;;;9.90;92.40;;;;;;949639;146;27300;-82
2022/12/07 11:24:39;;;;;;;5.57;4.60;;;9.90;92.70;;;;;;950729;149;27482;-82
2022/12/07 11:27:10;;;;;;;5.30;4.80;;;10.00;93.20;;;;;;948615;146;27919;-82
2022/12/07 11:29:58;;;;;;;6.37;4.67;;;10.10;93.90;;;;;;949353;146;27402;-82
2022/12/07 11:32:50;;;;;;;5.23;4.50;;;10.20;94.40;;;;;;950664;146;27713;-82
2022/12/07 11:35:22;;;;;;;5.13;4.40;;;10.40;94.50;;;;;;947875;149;27316;-82
2022/12/07 11:37:48;;;;;;;5.00;4.50;;;10.70;94.40;;;;;;948560;149;27368;-82
2022/12/07 11:40:15;;;;;;;5.30;4.70;;;10.80;93.80;;;;;;948720;149;27328;-81
2022/12/07 11:42:42;;;;;;;4.97;3.97;;;11.00;93.20;;;;;;946618;148;27406;-82
2022/12/07 11:45:14;;;;;;;4.47;3.03;;;11.10;93.00;;;;;;949038;149;27268;-82
2022/12/07 11:48:05;;;;;;;2.90;2.57;;;11.30;92.40;;;;;;948880;146;27369;-82
2022/12/07 11:50:34;;;;;;;2.63;2.33;;;11.40;91.50;;;;;;948824;149;27428;-82
2022/12/07 11:53:01;;;;;;;2.20;2.03;;;11.50;90.90;;;;;;949348;146;27425;-81
2022/12/07 11:55:42;;;;;;;3.07;2.70;;;11.60;90.30;;;;;;949844;149;27364;-82
2022/12/07 11:58:30;;;;;;;2.67;2.20;;;11.60;89.70;;;;;;946908;149;27301;-83
2022/12/07 12:00:57;;;;;;;4.10;2.50;;;11.70;88.50;;;;;;950216;149;27305;-82
2022/12/07 12:03:29;;;;;;;2.80;2.60;;;11.70;87.80;;;;;;946014;149;27500;-83
2022/12/07 12:05:53;;;;;;;3.27;2.53;;;11.70;87.20;;;;;;949723;149;27410;-83
2022/12/07 12:08:28;;;;;;;4.47;2.53;;;11.70;86.40;;;;;;943284;147;27928;-83
2022/12/07 12:10:57;;;;;;;2.33;2.13;;;11.70;85.60;;;;;;942016;147;27372;-83
2022/12/07 12:13:57;;;;;;;3.53;2.40;;;11.60;85.20;;;;;;942317;150;27929;-83
2022/12/07 12:16:39;;;;;;;2.60;2.40;;;11.60;85.30;;;;;;943760;149;27368;-83
2022/12/07 12:19:24;;;;;;;3.30;2.87;;;11.60;85.30;;;;;;941728;150;27810;-83
2022/12/07 12:21:50;;;;;;;4.87;3.30;;;11.60;85.30;;;;;;941175;150;27331;-83
2022/12/07 12:24:17;;;;;;;6.50;3.40;;;11.60;85.50;;;;;;940496;150;27347;-83
2022/12/07 12:26:43;;;;;;;5.23;3.70;;;11.60;86.00;;;;;;942940;150;27354;-82
2022/12/07 12:29:31;;;;;;;4.20;3.80;;;11.60;86.00;;;;;;941721;149;27806;-82
2022/12/07 12:32:08;;;;;;;6.07;3.53;;;11.60;85.90;;;;;;944924;147;27357;-83
2022/12/07 12:34:33;;;;;;;3.73;3.43;;;11.70;85.60;;;;;;942326;147;28392;-83
2022/12/07 12:37:00;;;;;;;4.87;4.23;;;11.70;85.20;;;;;;927147;150;27414;-82
2022/12/07 12:39:27;;;;;;;7.90;4.33;;;11.70;85.40;;;;;;945489;147;27482;-82
2022/12/07 12:44:23;;;;;;;4.70;3.57;;;11.70;84.90;;;;;;943154;150;27422;-82
2022/12/07 12:46:58;;;;;;;6.90;3.90;;;11.70;84.90;;;;;;945744;147;28501;-82
2022/12/07 12:49:25;;;;;;;3.90;3.60;;;11.60;84.40;;;;;;944458;149;27279;-81
2022/12/07 12:51:57;;;;;;;4.97;4.07;;;11.60;84.20;;;;;;946326;147;27399;-82
2022/12/07 12:54:27;;;;;;;3.97;3.47;;;11.60;84.40;;;;;;946626;147;27301;-81
2022/12/07 12:57:11;;;;;;;3.73;3.40;;;11.60;84.70;;;;;;942479;148;27445;-82
2022/12/07 12:59:53;;;;;;;4.50;3.80;;;11.60;85.00;;;;;;941691;150;27338;-82
2022/12/07 13:02:50;;;;;;;4.40;3.47;;;11.70;85.00;;;;;;943436;147;27297;-82
2022/12/07 13:05:17;;;;;;;3.97;3.50;;;11.70;84.70;;;;;;943177;147;27405;-83
2022/12/07 13:07:52;;;;;;;5.77;4.13;;;11.70;84.60;;;;;;943640;147;27344;-82
2022/12/07 13:10:28;;;;;;;4.53;3.37;;;11.70;84.20;;;;;;942089;149;27433;-82